createdAt,value
2023-05-19T00:01:57.381Z,11.48
2023-05-19T00:04:27.052Z,11.49
2023-05-19T00:06:55.519Z,11.42
2023-05-19T00:09:24.047Z,11.44
2023-05-19T00:11:52.565Z,11.40
2023-05-19T00:14:21.151Z,11.40
2023-05-19T00:16:49.899Z,11.35
2023-05-19T00:19:18.714Z,11.33
2023-05-19T00:21:47.108Z,11.35
2023-05-19T00:24:15.378Z,11.32
2023-05-19T00:26:43.708Z,11.34
2023-05-19T00:29:12.046Z,11.25
2023-05-19T00:31:40.571Z,11.23
2023-05-19T00:34:10.992Z,11.20
2023-05-19T00:36:39.335Z,11.19
2023-05-19T00:39:07.705Z,11.19
2023-05-19T00:41:36.935Z,11.15
2023-05-19T00:44:06.985Z,11.12
2023-05-19T00:46:35.588Z,11.10
2023-05-19T00:49:03.886Z,11.07
2023-05-19T00:51:32.432Z,11.02
2023-05-19T00:54:01.095Z,10.97
2023-05-19T00:56:29.520Z,10.95
2023-05-19T00:58:58.560Z,10.96
2023-05-19T01:01:27.875Z,10.93
2023-05-19T01:03:59.143Z,10.90
2023-05-19T01:06:27.763Z,10.93
2023-05-19T01:08:57.466Z,10.85
2023-05-19T01:11:25.934Z,10.83
2023-05-19T01:13:54.229Z,10.78
2023-05-19T01:16:34.605Z,10.74
2023-05-19T01:19:14.720Z,10.75
2023-05-19T01:22:42.888Z,10.71
2023-05-19T01:25:49.675Z,10.68
2023-05-19T01:28:55.642Z,10.63
2023-05-19T01:31:24.210Z,10.59
2023-05-19T01:33:54.355Z,10.57
2023-05-19T01:36:23.480Z,10.51
2023-05-19T01:38:58.578Z,10.52
2023-05-19T01:41:28.506Z,10.44
2023-05-19T01:43:57.902Z,10.42
2023-05-19T01:46:26.378Z,10.40
2023-05-19T01:48:54.948Z,10.41
2023-05-19T01:51:23.323Z,10.41
2023-05-19T01:53:51.695Z,10.38
2023-05-19T01:56:34.547Z,10.33
2023-05-19T01:59:46.862Z,10.31
2023-05-19T02:02:43.462Z,10.24
2023-05-19T02:05:29.439Z,10.26
2023-05-19T02:08:31.039Z,10.23
2023-05-19T02:11:07.958Z,10.20
2023-05-19T02:13:38.412Z,10.16
2023-05-19T02:16:07.386Z,10.14
2023-05-19T02:18:35.808Z,10.09
2023-05-19T02:21:04.330Z,10.05
2023-05-19T02:23:32.614Z,10.03
2023-05-19T02:26:01.327Z,9.99
2023-05-19T02:28:29.657Z,9.96
2023-05-19T02:31:00.006Z,9.94
2023-05-19T02:33:30.357Z,9.87
2023-05-19T02:35:58.739Z,9.85
2023-05-19T02:38:27.134Z,9.86
2023-05-19T02:40:55.454Z,9.87
2023-05-19T02:43:23.754Z,9.84
2023-05-19T02:45:52.089Z,9.84
2023-05-19T02:48:21.374Z,9.80
2023-05-19T02:50:52.268Z,9.77
2023-05-19T02:53:20.575Z,9.78
2023-05-19T02:55:49.026Z,9.80
2023-05-19T02:58:17.276Z,9.77
2023-05-19T03:00:45.929Z,9.78
2023-05-19T03:03:14.931Z,9.77
2023-05-19T03:05:43.752Z,9.73
2023-05-19T03:08:12.284Z,9.69
2023-05-19T03:10:40.633Z,9.66
2023-05-19T03:13:08.941Z,9.63
2023-05-19T03:15:37.250Z,9.55
2023-05-19T03:18:06.716Z,9.59
2023-05-19T03:20:35.232Z,9.52
2023-05-19T03:23:03.597Z,9.54
2023-05-19T03:25:31.862Z,9.53
2023-05-19T03:28:00.316Z,9.47
2023-05-19T03:30:28.642Z,9.50
2023-05-19T03:33:08.988Z,9.48
2023-05-19T03:35:37.451Z,9.47
2023-05-19T03:38:05.957Z,9.43
2023-05-19T03:40:36.188Z,9.41
2023-05-19T03:43:09.903Z,9.36
2023-05-19T03:45:45.847Z,9.37
2023-05-19T03:48:49.126Z,9.30
2023-05-19T03:51:34.846Z,9.28
2023-05-19T03:54:10.399Z,9.25
2023-05-19T03:56:40.997Z,9.25
2023-05-19T03:59:12.898Z,9.26
2023-05-19T04:01:41.301Z,9.20
2023-05-19T04:04:09.670Z,9.21
2023-05-19T04:06:38.070Z,9.19
2023-05-19T04:09:14.581Z,9.20
2023-05-19T04:11:43.368Z,9.21
2023-05-19T04:14:11.662Z,9.25
2023-05-19T04:16:39.979Z,9.25
2023-05-19T04:19:08.479Z,9.29
2023-05-19T04:21:36.900Z,9.32
2023-05-19T04:24:06.476Z,9.37
2023-05-19T04:26:35.912Z,9.46
2023-05-19T04:29:04.882Z,9.44
2023-05-19T04:31:35.273Z,9.44
2023-05-19T04:34:07.815Z,9.52
2023-05-19T04:36:38.409Z,9.58
2023-05-19T04:39:09.521Z,9.62
2023-05-19T04:41:40.483Z,9.66
2023-05-19T04:44:09.488Z,9.75
2023-05-19T04:46:38.944Z,9.82
2023-05-19T04:49:07.804Z,9.85
2023-05-19T04:51:36.204Z,9.93
2023-05-19T04:54:04.583Z,9.96
2023-05-19T04:56:33.242Z,9.99
2023-05-19T04:59:02.937Z,10.16
2023-05-19T05:01:32.910Z,10.07
2023-05-19T05:04:02.698Z,10.30
2023-05-19T05:06:31.968Z,10.35
2023-05-19T05:09:00.690Z,10.44
2023-05-19T05:11:29.893Z,10.48
2023-05-19T05:13:58.600Z,10.51
2023-05-19T05:16:29.718Z,10.70
2023-05-19T05:19:03.191Z,10.73
2023-05-19T05:21:32.929Z,10.76
2023-05-19T05:24:01.698Z,10.85
2023-05-19T05:26:58.982Z,10.93
2023-05-19T05:29:27.806Z,10.99
2023-05-19T05:32:22.233Z,11.11
2023-05-19T05:34:50.984Z,11.17
2023-05-19T05:37:19.315Z,11.25
2023-05-19T05:39:47.686Z,11.34
2023-05-19T05:42:16.230Z,11.41
2023-05-19T05:44:45.115Z,11.46
2023-05-19T05:47:14.155Z,11.53
2023-05-19T05:49:43.897Z,11.59
2023-05-19T05:52:13.216Z,11.71
2023-05-19T05:54:47.089Z,11.77
2023-05-19T05:57:18.482Z,11.83
2023-05-19T05:59:47.295Z,11.93
2023-05-19T06:02:22.468Z,12.00
2023-05-19T06:04:50.881Z,12.13
2023-05-19T06:07:19.131Z,12.21
2023-05-19T06:09:47.582Z,12.29
2023-05-19T06:12:17.110Z,12.39
2023-05-19T06:14:49.585Z,12.49
2023-05-19T06:17:26.992Z,12.59
2023-05-19T06:19:55.633Z,12.67
2023-05-19T06:22:24.396Z,12.75
2023-05-19T06:24:52.998Z,12.83
2023-05-19T06:27:21.312Z,12.92
2023-05-19T06:29:49.598Z,13.02
2023-05-19T06:32:18.042Z,13.10
2023-05-19T06:34:53.930Z,13.22
2023-05-19T06:37:25.407Z,13.31
2023-05-19T06:39:54.480Z,13.44
2023-05-19T06:42:26.477Z,13.54
2023-05-19T06:45:09.907Z,13.64
2023-05-19T06:47:42.409Z,13.74
2023-05-19T06:50:10.766Z,13.90
2023-05-19T06:52:42.671Z,13.95
2023-05-19T06:55:11.098Z,14.04
2023-05-19T06:57:40.444Z,14.12
2023-05-19T07:00:14.616Z,14.21
2023-05-19T07:02:47.998Z,14.35
2023-05-19T07:05:16.719Z,14.42
2023-05-19T07:07:50.079Z,14.50
2023-05-19T07:10:22.517Z,14.62
2023-05-19T07:12:51.805Z,14.69
2023-05-19T07:15:23.280Z,14.79
2023-05-19T07:17:51.717Z,14.84
2023-05-19T07:20:20.090Z,14.98
2023-05-19T07:22:48.516Z,15.10
2023-05-19T07:25:17.210Z,15.17
2023-05-19T07:27:48.577Z,15.28
2023-05-19T07:30:16.869Z,15.33
2023-05-19T07:32:45.214Z,15.43
2023-05-19T07:35:16.562Z,15.46
2023-05-19T07:37:44.841Z,15.56
2023-05-19T07:40:13.342Z,15.59
2023-05-19T07:42:41.986Z,15.73
2023-05-19T07:45:12.063Z,15.82
2023-05-19T07:47:40.435Z,15.89
2023-05-19T07:50:09.077Z,15.96
2023-05-19T07:52:37.385Z,16.08
2023-05-19T07:55:06.163Z,16.16
2023-05-19T07:57:34.501Z,16.25
2023-05-19T08:00:07.551Z,16.34
2023-05-19T08:02:40.789Z,16.50
2023-05-19T08:05:09.871Z,16.56
2023-05-19T08:07:38.373Z,16.61
2023-05-19T08:10:07.344Z,16.76
2023-05-19T08:12:35.823Z,16.77
2023-05-19T08:15:04.735Z,16.87
2023-05-19T08:17:33.144Z,16.96
2023-05-19T08:20:01.430Z,17.03
2023-05-19T08:22:29.878Z,17.18
2023-05-19T08:24:58.234Z,17.22
2023-05-19T08:27:26.530Z,17.29
2023-05-19T08:29:55.456Z,17.38
2023-05-19T08:32:24.186Z,17.32
2023-05-19T08:34:52.623Z,17.47
2023-05-19T08:37:21.100Z,17.64
2023-05-19T08:39:49.489Z,17.77
2023-05-19T08:42:17.776Z,17.90
2023-05-19T08:44:46.137Z,18.00
2023-05-19T08:47:15.189Z,18.11
2023-05-19T08:49:47.494Z,18.18
2023-05-19T08:52:53.128Z,18.24
2023-05-19T08:55:58.998Z,18.34
2023-05-19T08:58:28.814Z,18.48
2023-05-19T09:00:57.449Z,18.58
2023-05-19T09:03:26.523Z,18.67
2023-05-19T09:05:55.031Z,18.73
2023-05-19T09:08:23.360Z,18.80
2023-05-19T09:10:51.670Z,18.98
2023-05-19T09:13:19.940Z,19.06
2023-05-19T09:15:49.329Z,19.21
2023-05-19T09:18:17.866Z,19.36
2023-05-19T09:20:47.244Z,19.51
2023-05-19T09:23:17.727Z,19.76
2023-05-19T09:25:49.977Z,20.76
2023-05-19T09:28:30.959Z,21.81
2023-05-19T09:31:08.368Z,22.60
2023-05-19T09:33:39.207Z,23.28
2023-05-19T09:36:13.845Z,23.84
2023-05-19T09:38:42.477Z,24.52
2023-05-19T09:41:11.232Z,25.00
2023-05-19T09:43:39.501Z,25.43
2023-05-19T09:46:12.127Z,25.76
2023-05-19T09:48:42.753Z,26.38
2023-05-19T09:51:11.693Z,26.68
2023-05-19T09:53:40.048Z,27.12
2023-05-19T09:56:09.960Z,27.39
2023-05-19T09:58:39.032Z,27.80
2023-05-19T10:01:07.591Z,28.05
2023-05-19T10:03:36.641Z,28.32
2023-05-19T10:06:05.558Z,28.88
2023-05-19T10:08:35.862Z,29.23
2023-05-19T10:11:04.337Z,29.47
2023-05-19T10:13:32.893Z,29.76
2023-05-19T10:16:01.781Z,29.67
2023-05-19T10:18:30.293Z,30.19
2023-05-19T10:21:00.168Z,29.10
2023-05-19T10:23:28.424Z,28.55
2023-05-19T10:25:59.259Z,28.40
2023-05-19T10:28:35.334Z,29.58
2023-05-19T10:34:21.894Z,30.83
2023-05-19T10:37:12.094Z,30.89
2023-05-19T10:39:44.394Z,29.63
2023-05-19T10:42:38.432Z,28.95
2023-05-19T10:45:21.284Z,28.66
2023-05-19T10:47:51.774Z,30.09
2023-05-19T10:50:21.114Z,30.95
2023-05-19T10:52:56.887Z,30.20
2023-05-19T10:55:53.228Z,30.06
2023-05-19T10:58:46.158Z,29.59
2023-05-19T11:01:17.004Z,29.75
2023-05-19T11:03:47.383Z,29.09
2023-05-19T11:06:29.635Z,29.22
2023-05-19T11:09:00.972Z,29.05
2023-05-19T11:11:51.992Z,29.79
2023-05-19T11:14:26.838Z,31.26
2023-05-19T11:16:59.621Z,30.63
2023-05-19T11:19:32.562Z,29.87
2023-05-19T11:22:13.945Z,30.27
2023-05-19T11:24:53.388Z,31.97
2023-05-19T11:27:23.119Z,30.90
2023-05-19T11:29:52.103Z,30.40
2023-05-19T11:32:26.996Z,31.92
2023-05-19T11:34:57.586Z,33.20
2023-05-19T11:37:26.717Z,34.15
2023-05-19T11:39:56.276Z,35.10
2023-05-19T11:42:24.634Z,35.75
2023-05-19T11:44:56.160Z,36.40
2023-05-19T11:47:24.652Z,36.42
2023-05-19T11:49:54.844Z,35.09
2023-05-19T11:52:24.009Z,33.52
2023-05-19T11:54:52.512Z,32.26
2023-05-19T11:57:21.000Z,31.66
2023-05-19T11:59:52.246Z,31.00
2023-05-19T12:02:24.784Z,30.60
2023-05-19T12:04:54.086Z,30.21
2023-05-19T12:07:26.049Z,31.29
2023-05-19T12:09:56.039Z,33.02
2023-05-19T12:12:24.333Z,34.43
2023-05-19T12:14:53.348Z,35.25
2023-05-19T12:17:24.084Z,34.93
2023-05-19T12:19:52.689Z,35.01
2023-05-19T12:22:21.095Z,33.56
2023-05-19T12:24:50.348Z,32.80
2023-05-19T12:27:26.219Z,32.92
2023-05-19T12:29:57.214Z,33.82
2023-05-19T12:32:27.725Z,35.67
2023-05-19T12:35:00.305Z,36.20
2023-05-19T12:37:30.085Z,37.32
2023-05-19T12:39:59.306Z,35.55
2023-05-19T12:42:31.426Z,34.25
2023-05-19T12:45:03.238Z,32.88
2023-05-19T12:47:34.807Z,35.00
2023-05-19T12:50:10.263Z,36.29
2023-05-19T12:52:52.120Z,36.59
2023-05-19T12:55:22.149Z,37.94
2023-05-19T12:57:57.302Z,38.59
2023-05-19T13:00:31.155Z,39.28
2023-05-19T13:03:05.928Z,37.63
2023-05-19T13:05:39.203Z,36.05
2023-05-19T13:08:12.673Z,34.92
2023-05-19T13:10:44.565Z,34.38
2023-05-19T13:13:13.630Z,36.03
2023-05-19T13:15:44.066Z,35.79
2023-05-19T13:18:13.700Z,35.80
2023-05-19T13:20:44.382Z,34.92
2023-05-19T13:23:14.212Z,34.25
2023-05-19T13:25:43.420Z,33.52
2023-05-19T13:28:12.012Z,32.92
2023-05-19T13:30:41.960Z,35.02
2023-05-19T13:33:09.990Z,36.46
2023-05-19T13:35:38.850Z,37.55
2023-05-19T13:38:09.862Z,37.95
2023-05-19T13:40:39.790Z,38.63
2023-05-19T13:43:09.001Z,38.42
2023-05-19T13:45:37.717Z,36.68
2023-05-19T13:48:07.376Z,35.93
2023-05-19T13:50:36.115Z,37.57
2023-05-19T13:53:04.396Z,38.96
2023-05-19T13:55:33.191Z,39.46
2023-05-19T13:58:01.472Z,37.82
2023-05-19T14:00:31.759Z,38.70
2023-05-19T14:03:00.559Z,39.25
2023-05-19T14:05:29.322Z,39.93
2023-05-19T14:07:58.149Z,39.95
2023-05-19T14:10:26.664Z,39.67
2023-05-19T14:13:25.850Z,38.10
2023-05-19T14:15:44.215Z,37.88
2023-05-19T14:18:12.637Z,36.18
2023-05-19T14:20:41.467Z,35.19
2023-05-19T14:23:09.945Z,34.30
2023-05-19T14:25:38.285Z,35.64
2023-05-19T14:28:06.516Z,36.94
2023-05-19T14:30:35.006Z,37.22
2023-05-19T14:33:03.765Z,38.30
2023-05-19T14:35:32.337Z,38.64
2023-05-19T14:38:00.832Z,39.10
2023-05-19T14:40:29.264Z,39.01
2023-05-19T14:42:57.916Z,39.57
2023-05-19T14:45:26.241Z,39.67
2023-05-19T14:47:54.769Z,39.46
2023-05-19T14:50:23.161Z,38.15
2023-05-19T14:52:51.405Z,36.89
2023-05-19T14:55:19.758Z,37.07
2023-05-19T14:57:48.038Z,38.33
2023-05-19T15:00:17.684Z,37.28
2023-05-19T15:02:46.272Z,37.60
2023-05-19T15:05:14.659Z,36.36
2023-05-19T15:07:43.016Z,36.28
2023-05-19T15:10:11.615Z,35.44
2023-05-19T15:12:39.938Z,36.90
2023-05-19T15:15:09.156Z,35.54
2023-05-19T15:17:37.491Z,34.57
2023-05-19T15:20:06.737Z,34.72
2023-05-19T15:22:35.172Z,33.70
2023-05-19T15:25:03.640Z,34.01
2023-05-19T15:27:31.931Z,35.58
2023-05-19T15:30:00.310Z,35.45
2023-05-19T15:32:28.635Z,37.44
2023-05-19T15:34:57.030Z,37.66
2023-05-19T15:37:25.541Z,37.58
2023-05-19T15:39:54.863Z,36.26
2023-05-19T15:42:23.219Z,35.57
2023-05-19T15:44:51.526Z,36.78
2023-05-19T15:47:19.862Z,37.25
2023-05-19T15:49:48.186Z,37.14
2023-05-19T15:52:16.575Z,37.75
2023-05-19T15:54:45.002Z,37.89
2023-05-19T15:57:13.557Z,37.71
2023-05-19T15:59:41.996Z,36.54
2023-05-19T16:02:10.801Z,36.89
2023-05-19T16:04:39.209Z,36.46
2023-05-19T16:07:07.532Z,37.07
2023-05-19T16:09:35.864Z,37.14
2023-05-19T16:12:04.313Z,37.07
2023-05-19T16:14:36.338Z,36.60
2023-05-19T16:17:11.245Z,35.92
2023-05-19T16:19:39.743Z,35.02
2023-05-19T16:22:08.051Z,34.54
2023-05-19T16:24:36.406Z,34.02
2023-05-19T16:27:05.208Z,33.21
2023-05-19T16:29:33.541Z,32.92
2023-05-19T16:32:01.923Z,32.26
2023-05-19T16:34:30.730Z,32.19
2023-05-19T16:36:59.228Z,31.57
2023-05-19T16:39:27.560Z,32.23
2023-05-19T16:41:55.865Z,32.67
2023-05-19T16:44:24.583Z,33.42
2023-05-19T16:46:53.016Z,33.64
2023-05-19T16:49:21.374Z,33.88
2023-05-19T16:51:50.024Z,33.63
2023-05-19T16:54:18.512Z,33.20
2023-05-19T16:56:46.793Z,32.14
2023-05-19T16:59:15.074Z,32.38
2023-05-19T17:01:43.840Z,32.79
2023-05-19T17:04:12.186Z,33.02
2023-05-19T17:06:40.579Z,32.85
2023-05-19T17:09:08.896Z,32.88
2023-05-19T17:11:37.221Z,32.63
2023-05-19T17:14:09.250Z,32.60
2023-05-19T17:16:38.784Z,32.63
2023-05-19T17:19:07.087Z,32.70
2023-05-19T17:21:35.647Z,32.53
2023-05-19T17:24:03.912Z,32.23
2023-05-19T17:26:32.413Z,32.35
2023-05-19T17:29:00.753Z,31.94
2023-05-19T17:31:29.070Z,31.96
2023-05-19T17:33:57.339Z,31.75
2023-05-19T17:36:26.070Z,31.53
2023-05-19T17:38:54.501Z,31.53
2023-05-19T17:41:22.792Z,31.30
2023-05-19T17:43:51.266Z,30.98
2023-05-19T17:46:19.629Z,31.19
2023-05-19T17:48:48.002Z,31.35
2023-05-19T17:51:16.320Z,31.25
2023-05-19T17:53:45.422Z,30.91
2023-05-19T17:56:13.946Z,30.79
2023-05-19T17:58:42.628Z,30.51
2023-05-19T18:01:11.236Z,30.42
2023-05-19T18:03:39.933Z,30.50
2023-05-19T18:06:08.472Z,30.45
2023-05-19T18:08:37.704Z,30.04
2023-05-19T18:11:06.477Z,30.13
2023-05-19T18:13:35.304Z,29.78
2023-05-19T18:16:03.657Z,29.58
2023-05-19T18:18:34.592Z,29.78
2023-05-19T18:21:05.888Z,29.17
2023-05-19T18:23:34.260Z,28.96
2023-05-19T18:26:02.533Z,28.89
2023-05-19T18:28:30.871Z,28.25
2023-05-19T18:31:00.812Z,28.29
2023-05-19T18:33:31.065Z,28.29
2023-05-19T18:35:59.982Z,28.07
2023-05-19T18:38:28.284Z,27.78
2023-05-19T18:40:56.807Z,27.69
2023-05-19T18:43:25.237Z,27.41
2023-05-19T18:45:53.644Z,27.38
2023-05-19T18:48:22.533Z,26.80
2023-05-19T18:50:51.407Z,26.75
2023-05-19T18:53:21.160Z,26.58
2023-05-19T18:55:49.545Z,26.34
2023-05-19T18:58:18.875Z,26.11
2023-05-19T19:00:47.990Z,25.92
2023-05-19T19:03:16.458Z,25.63
2023-05-19T19:05:46.085Z,25.40
2023-05-19T19:08:14.365Z,25.05
2023-05-19T19:10:43.265Z,24.83
2023-05-19T19:13:11.613Z,24.65
2023-05-19T19:15:39.914Z,24.45
2023-05-19T19:18:08.479Z,24.25
2023-05-19T19:20:36.868Z,24.04
2023-05-19T19:23:06.545Z,23.83
2023-05-19T19:25:35.203Z,23.56
2023-05-19T19:28:03.683Z,23.40
2023-05-19T19:30:32.369Z,23.19
2023-05-19T19:33:01.035Z,23.03
2023-05-19T19:35:29.475Z,22.79
2023-05-19T19:37:58.688Z,22.61
2023-05-19T19:40:26.975Z,22.46
2023-05-19T19:42:55.374Z,22.30
2023-05-19T19:45:23.751Z,22.11
2023-05-19T19:47:52.445Z,21.93
2023-05-19T19:50:20.778Z,21.79
2023-05-19T19:52:49.088Z,21.68
2023-05-19T19:55:17.507Z,21.50
2023-05-19T19:57:49.152Z,21.42
2023-05-19T20:00:18.498Z,21.31
2023-05-19T20:05:19.987Z,21.08
2023-05-19T20:07:48.246Z,20.98
2023-05-19T20:10:16.770Z,20.86
2023-05-19T20:12:47.095Z,20.77
2023-05-19T20:15:15.960Z,20.69
2023-05-19T20:17:44.332Z,20.57
2023-05-19T20:20:13.153Z,20.47
2023-05-19T20:22:41.637Z,20.36
2023-05-19T20:25:10.079Z,20.32
2023-05-19T20:27:38.355Z,20.24
2023-05-19T20:30:07.495Z,20.12
2023-05-19T20:32:36.460Z,20.00
2023-05-19T20:35:05.128Z,19.97
2023-05-19T20:37:33.487Z,19.88
2023-05-19T20:40:01.815Z,19.83
2023-05-19T20:42:30.099Z,19.79
2023-05-19T20:44:58.990Z,19.75
2023-05-19T20:47:29.750Z,19.69
2023-05-19T20:49:58.819Z,19.62
2023-05-19T20:52:27.389Z,19.52
2023-05-19T20:54:56.890Z,19.53
2023-05-19T20:57:27.634Z,19.50
2023-05-19T20:59:57.116Z,19.40
2023-05-19T21:02:25.468Z,19.35
2023-05-19T21:04:53.991Z,19.38
2023-05-19T21:07:22.603Z,19.34
2023-05-19T21:09:51.443Z,19.30
2023-05-19T21:12:23.804Z,19.20
2023-05-19T21:14:52.445Z,19.19
2023-05-19T21:17:21.282Z,19.20
2023-05-19T21:19:50.740Z,19.22
2023-05-19T21:22:19.158Z,19.17
2023-05-19T21:24:47.496Z,19.17
2023-05-19T21:27:15.789Z,19.20
2023-05-19T21:29:44.058Z,19.25
2023-05-19T21:32:12.397Z,19.26
2023-05-19T21:34:40.746Z,19.25
2023-05-19T21:37:09.082Z,19.23
2023-05-19T21:39:37.446Z,19.26
2023-05-19T21:42:06.405Z,19.18
2023-05-19T21:44:34.733Z,19.14
2023-05-19T21:47:03.089Z,19.19
2023-05-19T21:49:31.670Z,19.16
2023-05-19T21:52:00.016Z,19.13
2023-05-19T21:54:28.356Z,19.10
2023-05-19T21:56:56.639Z,19.13
2023-05-19T21:59:25.017Z,19.12
2023-05-19T22:01:53.508Z,19.11
2023-05-19T22:04:22.518Z,19.07
2023-05-19T22:06:51.056Z,19.08
2023-05-19T22:09:19.371Z,19.10
2023-05-19T22:11:47.665Z,19.11
2023-05-19T22:14:16.185Z,19.12
2023-05-19T22:16:44.703Z,19.10
2023-05-19T22:19:13.425Z,19.11
2023-05-19T22:21:42.778Z,19.10
2023-05-19T22:24:11.165Z,19.13
2023-05-19T22:26:42.628Z,19.11
2023-05-19T22:29:15.099Z,19.09
2023-05-19T22:31:43.444Z,19.08
2023-05-19T22:34:15.293Z,19.07
2023-05-19T22:36:45.912Z,19.05
2023-05-19T22:39:14.461Z,19.04
2023-05-19T22:41:42.860Z,19.02
2023-05-19T22:44:15.386Z,18.95
2023-05-19T22:46:44.669Z,18.93
2023-05-19T22:49:13.053Z,18.93
2023-05-19T22:51:41.330Z,18.90
2023-05-19T22:54:10.727Z,18.90
2023-05-19T22:56:38.978Z,18.89
2023-05-19T22:59:07.295Z,18.85
2023-05-19T23:01:35.743Z,18.84
2023-05-19T23:04:04.389Z,18.82
2023-05-19T23:06:32.702Z,18.78
2023-05-19T23:09:04.716Z,18.71
2023-05-19T23:11:33.170Z,18.72
2023-05-19T23:14:01.961Z,18.71
2023-05-19T23:16:30.430Z,18.67
2023-05-19T23:18:58.839Z,18.59
2023-05-19T23:21:27.157Z,18.55
2023-05-19T23:23:55.882Z,18.51
2023-05-19T23:26:24.262Z,18.48
2023-05-19T23:28:52.601Z,18.41
2023-05-19T23:31:21.041Z,18.39
2023-05-19T23:33:49.476Z,18.35
2023-05-19T23:36:17.802Z,18.23
2023-05-19T23:38:46.072Z,18.12
2023-05-19T23:41:14.761Z,18.11
2023-05-19T23:43:43.097Z,18.05
2023-05-19T23:46:11.509Z,18.01
2023-05-19T23:48:39.894Z,17.94
2023-05-19T23:51:08.188Z,17.90
2023-05-19T23:53:36.650Z,17.82
2023-05-19T23:56:05.302Z,17.80
2023-05-19T23:58:33.586Z,17.75
